sensor_id;sensor_type;location;lat;lon;timestamp;pressure;altitude;pressure_sealevel;temperature;humidity
79617;BME280;69097;52.132;5.422;2024-01-11T00:02:08;103532.06;;;-3.72;70.59
79617;BME280;69097;52.132;5.422;2024-01-11T00:04:35;103533.41;;;-3.75;70.60
79617;BME280;69097;52.132;5.422;2024-01-11T00:07:03;103526.81;;;-3.79;70.62
79617;BME280;69097;52.132;5.422;2024-01-11T00:09:29;103535.84;;;-3.84;70.47
79617;BME280;69097;52.132;5.422;2024-01-11T00:11:56;103531.75;;;-3.86;70.96
79617;BME280;69097;52.132;5.422;2024-01-11T00:14:22;103527.06;;;-3.86;70.81
79617;BME280;69097;52.132;5.422;2024-01-11T00:16:48;103529.81;;;-3.86;70.90
79617;BME280;69097;52.132;5.422;2024-01-11T00:19:15;103531.75;;;-3.86;70.38
79617;BME280;69097;52.132;5.422;2024-01-11T00:21:42;103530.09;;;-3.87;70.14
79617;BME280;69097;52.132;5.422;2024-01-11T00:24:08;103534.22;;;-3.90;70.66
79617;BME280;69097;52.132;5.422;2024-01-11T00:26:34;103529.00;;;-3.91;70.65
79617;BME280;69097;52.132;5.422;2024-01-11T00:29:04;103519.13;;;-3.87;70.72
79617;BME280;69097;52.132;5.422;2024-01-11T00:31:31;103530.63;;;-3.90;71.00
79617;BME280;69097;52.132;5.422;2024-01-11T00:33:57;103529.81;;;-3.91;70.37
79617;BME280;69097;52.132;5.422;2024-01-11T00:36:24;103534.47;;;-3.91;70.50
79617;BME280;69097;52.132;5.422;2024-01-11T00:38:51;103525.97;;;-3.95;70.55
79617;BME280;69097;52.132;5.422;2024-01-11T00:41:17;103528.69;;;-4.00;71.00
79617;BME280;69097;52.132;5.422;2024-01-11T00:43:44;103522.94;;;-3.98;70.91
79617;BME280;69097;52.132;5.422;2024-01-11T00:46:10;103519.63;;;-4.00;71.03
79617;BME280;69097;52.132;5.422;2024-01-11T00:48:37;103517.47;;;-3.98;71.28
79617;BME280;69097;52.132;5.422;2024-01-11T00:51:05;103522.66;;;-3.97;71.21
79617;BME280;69097;52.132;5.422;2024-01-11T00:53:32;103526.19;;;-4.01;70.95
79617;BME280;69097;52.132;5.422;2024-01-11T00:56:00;103517.72;;;-4.05;71.03
79617;BME280;69097;52.132;5.422;2024-01-11T00:58:27;103522.63;;;-4.07;71.20
79617;BME280;69097;52.132;5.422;2024-01-11T01:00:54;103526.47;;;-4.03;71.64
79617;BME280;69097;52.132;5.422;2024-01-11T01:03:21;103519.63;;;-4.10;71.57
79617;BME280;69097;52.132;5.422;2024-01-11T01:05:48;103519.31;;;-4.14;71.60
79617;BME280;69097;52.132;5.422;2024-01-11T01:08:14;103523.97;;;-4.14;71.88
79617;BME280;69097;52.132;5.422;2024-01-11T01:10:41;103519.88;;;-4.17;72.04
79617;BME280;69097;52.132;5.422;2024-01-11T01:13:08;103516.28;;;-4.22;72.12
79617;BME280;69097;52.132;5.422;2024-01-11T01:15:34;103534.34;;;-4.21;72.29
79617;BME280;69097;52.132;5.422;2024-01-11T01:18:01;103531.38;;;-4.20;72.39
79617;BME280;69097;52.132;5.422;2024-01-11T01:20:28;103528.88;;;-4.21;72.16
79617;BME280;69097;52.132;5.422;2024-01-11T01:22:54;103529.44;;;-4.14;72.44
79617;BME280;69097;52.132;5.422;2024-01-11T01:25:21;103540.97;;;-4.17;72.17
79617;BME280;69097;52.132;5.422;2024-01-11T01:27:48;103537.34;;;-4.23;71.90
79617;BME280;69097;52.132;5.422;2024-01-11T01:30:14;103542.53;;;-4.26;72.26
79617;BME280;69097;52.132;5.422;2024-01-11T01:32:41;103540.09;;;-4.23;72.65
79617;BME280;69097;52.132;5.422;2024-01-11T01:35:08;103537.63;;;-4.24;72.43
79617;BME280;69097;52.132;5.422;2024-01-11T01:37:36;103542.53;;;-4.26;72.83
79617;BME280;69097;52.132;5.422;2024-01-11T01:40:03;103540.63;;;-4.26;72.37
79617;BME280;69097;52.132;5.422;2024-01-11T01:42:30;103543.13;;;-4.24;72.53
79617;BME280;69097;52.132;5.422;2024-01-11T01:44:56;103537.63;;;-4.29;72.80
79617;BME280;69097;52.132;5.422;2024-01-11T01:47:23;103543.09;;;-4.29;72.91
79617;BME280;69097;52.132;5.422;2024-01-11T01:49:49;103544.19;;;-4.30;73.05
79617;BME280;69097;52.132;5.422;2024-01-11T01:52:16;103550.22;;;-4.33;72.97
79617;BME280;69097;52.132;5.422;2024-01-11T01:54:43;103551.81;;;-4.37;73.09
79617;BME280;69097;52.132;5.422;2024-01-11T01:57:11;103546.88;;;-4.40;73.38
79617;BME280;69097;52.132;5.422;2024-01-11T01:59:40;103556.19;;;-4.41;73.50
79617;BME280;69097;52.132;5.422;2024-01-11T02:02:07;103553.41;;;-4.46;73.85
79617;BME280;69097;52.132;5.422;2024-01-11T02:04:34;103554.78;;;-4.49;73.73
79617;BME280;69097;52.132;5.422;2024-01-11T02:07:01;103557.22;;;-4.52;73.88
79617;BME280;69097;52.132;5.422;2024-01-11T02:09:28;103563.78;;;-4.48;73.82
79617;BME280;69097;52.132;5.422;2024-01-11T02:11:57;103568.75;;;-4.50;74.18
79617;BME280;69097;52.132;5.422;2024-01-11T02:14:24;103578.03;;;-4.51;74.10
79617;BME280;69097;52.132;5.422;2024-01-11T02:16:51;103578.88;;;-4.51;73.99
79617;BME280;69097;52.132;5.422;2024-01-11T02:19:19;103577.22;;;-4.52;74.36
79617;BME280;69097;52.132;5.422;2024-01-11T02:21:48;103575.25;;;-4.56;74.33
79617;BME280;69097;52.132;5.422;2024-01-11T02:24:16;103566.25;;;-4.57;74.69
79617;BME280;69097;52.132;5.422;2024-01-11T02:27:02;103560.50;;;-4.55;74.50
79617;BME280;69097;52.132;5.422;2024-01-11T02:29:29;103560.78;;;-4.57;74.62
79617;BME280;69097;52.132;5.422;2024-01-11T02:31:56;103554.16;;;-4.61;74.30
79617;BME280;69097;52.132;5.422;2024-01-11T02:34:24;103556.59;;;-4.64;74.83
79617;BME280;69097;52.132;5.422;2024-01-11T02:36:51;103556.31;;;-4.68;74.84
79617;BME280;69097;52.132;5.422;2024-01-11T02:39:19;103556.56;;;-4.69;74.92
79617;BME280;69097;52.132;5.422;2024-01-11T02:41:47;103551.91;;;-4.74;75.12
79617;BME280;69097;52.132;5.422;2024-01-11T02:44:14;103544.75;;;-4.75;75.59
79617;BME280;69097;52.132;5.422;2024-01-11T02:46:40;103557.38;;;-4.74;75.37
79617;BME280;69097;52.132;5.422;2024-01-11T02:49:07;103551.59;;;-4.77;75.71
79617;BME280;69097;52.132;5.422;2024-01-11T02:51:34;103544.47;;;-4.78;75.93
79617;BME280;69097;52.132;5.422;2024-01-11T02:54:00;103539.22;;;-4.85;75.87
79617;BME280;69097;52.132;5.422;2024-01-11T02:56:27;103547.16;;;-4.83;75.88
79617;BME280;69097;52.132;5.422;2024-01-11T02:58:53;103544.13;;;-4.87;76.19
79617;BME280;69097;52.132;5.422;2024-01-11T03:01:20;103552.59;;;-4.88;75.91
79617;BME280;69097;52.132;5.422;2024-01-11T03:03:46;103554.81;;;-4.90;76.21
79617;BME280;69097;52.132;5.422;2024-01-11T03:06:16;103540.81;;;-4.94;76.52
79617;BME280;69097;52.132;5.422;2024-01-11T03:08:48;103547.09;;;-4.93;76.68
79617;BME280;69097;52.132;5.422;2024-01-11T03:11:15;103552.56;;;-4.93;76.57
79617;BME280;69097;52.132;5.422;2024-01-11T03:13:42;103554.22;;;-4.92;76.92
79617;BME280;69097;52.132;5.422;2024-01-11T03:16:09;103558.88;;;-4.93;77.23
79617;BME280;69097;52.132;5.422;2024-01-11T03:18:35;103571.72;;;-4.93;76.96
79617;BME280;69097;52.132;5.422;2024-01-11T03:21:02;103569.56;;;-4.91;77.47
79617;BME280;69097;52.132;5.422;2024-01-11T03:23:29;103560.81;;;-4.88;77.54
79617;BME280;69097;52.132;5.422;2024-01-11T03:25:55;103562.75;;;-4.89;77.63
79617;BME280;69097;52.132;5.422;2024-01-11T03:28:22;103568.47;;;-4.90;77.79
79617;BME280;69097;52.132;5.422;2024-01-11T03:30:48;103560.81;;;-4.88;77.87
79617;BME280;69097;52.132;5.422;2024-01-11T03:33:15;103559.47;;;-4.86;78.00
79617;BME280;69097;52.132;5.422;2024-01-11T03:35:41;103566.06;;;-4.82;78.13
79617;BME280;69097;52.132;5.422;2024-01-11T03:38:10;103572.94;;;-4.79;78.06
79617;BME280;69097;52.132;5.422;2024-01-11T03:40:36;103571.81;;;-4.78;78.26
79617;BME280;69097;52.132;5.422;2024-01-11T03:43:03;103573.19;;;-4.81;78.06
79617;BME280;69097;52.132;5.422;2024-01-11T03:45:30;103564.16;;;-4.81;78.21
79617;BME280;69097;52.132;5.422;2024-01-11T03:47:56;103561.94;;;-4.84;78.32
79617;BME280;69097;52.132;5.422;2024-01-11T03:50:23;103566.88;;;-4.81;77.89
79617;BME280;69097;52.132;5.422;2024-01-11T03:52:49;103564.69;;;-4.84;78.41
79617;BME280;69097;52.132;5.422;2024-01-11T03:55:16;103563.31;;;-4.82;78.46
79617;BME280;69097;52.132;5.422;2024-01-11T03:57:43;103575.06;;;-4.86;78.76
79617;BME280;69097;52.132;5.422;2024-01-11T04:00:11;103574.50;;;-4.88;78.99
79617;BME280;69097;52.132;5.422;2024-01-11T04:02:37;103584.09;;;-4.86;78.82
79617;BME280;69097;52.132;5.422;2024-01-11T04:05:04;103587.38;;;-4.89;78.67
79617;BME280;69097;52.132;5.422;2024-01-11T04:07:32;103581.09;;;-4.84;78.49
79617;BME280;69097;52.132;5.422;2024-01-11T04:09:58;103569.09;;;-4.78;79.57
79617;BME280;69097;52.132;5.422;2024-01-11T04:12:25;103588.84;;;-4.71;79.16
79617;BME280;69097;52.132;5.422;2024-01-11T04:14:52;103584.50;;;-4.67;79.49
79617;BME280;69097;52.132;5.422;2024-01-11T04:17:18;103593.25;;;-4.70;79.61
79617;BME280;69097;52.132;5.422;2024-01-11T04:19:45;103591.06;;;-4.68;79.63
79617;BME280;69097;52.132;5.422;2024-01-11T04:22:12;103593.78;;;-4.68;79.88
79617;BME280;69097;52.132;5.422;2024-01-11T04:24:38;103592.47;;;-4.66;79.91
79617;BME280;69097;52.132;5.422;2024-01-11T04:27:07;103599.88;;;-4.61;79.59
79617;BME280;69097;52.132;5.422;2024-01-11T04:29:33;103616.28;;;-4.61;79.77
79617;BME280;69097;52.132;5.422;2024-01-11T04:32:00;103613.25;;;-4.65;79.75
79617;BME280;69097;52.132;5.422;2024-01-11T04:34:28;103605.56;;;-4.68;80.08
79617;BME280;69097;52.132;5.422;2024-01-11T04:36:54;103611.88;;;-4.67;80.10
79617;BME280;69097;52.132;5.422;2024-01-11T04:39:21;103612.97;;;-4.68;79.82
79617;BME280;69097;52.132;5.422;2024-01-11T04:41:48;103600.66;;;-4.66;80.26
79617;BME280;69097;52.132;5.422;2024-01-11T04:44:14;103602.03;;;-4.63;79.89
79617;BME280;69097;52.132;5.422;2024-01-11T04:46:43;103614.09;;;-4.64;80.30
79617;BME280;69097;52.132;5.422;2024-01-11T04:49:10;103612.19;;;-4.64;80.13
79617;BME280;69097;52.132;5.422;2024-01-11T04:51:36;103617.41;;;-4.62;80.04
79617;BME280;69097;52.132;5.422;2024-01-11T04:54:03;103620.97;;;-4.62;80.55
79617;BME280;69097;52.132;5.422;2024-01-11T04:56:29;103615.22;;;-4.60;80.99
79617;BME280;69097;52.132;5.422;2024-01-11T04:58:56;103623.97;;;-4.58;80.42
79617;BME280;69097;52.132;5.422;2024-01-11T05:01:23;103635.81;;;-4.53;80.30
79617;BME280;69097;52.132;5.422;2024-01-11T05:03:49;103623.22;;;-4.54;80.15
79617;BME280;69097;52.132;5.422;2024-01-11T05:06:20;103604.31;;;-4.55;80.48
79617;BME280;69097;52.132;5.422;2024-01-11T05:08:52;103607.31;;;-4.57;80.30
79617;BME280;69097;52.132;5.422;2024-01-11T05:11:20;103601.53;;;-4.60;80.68
79617;BME280;69097;52.132;5.422;2024-01-11T05:13:48;103607.31;;;-4.57;80.63
79617;BME280;69097;52.132;5.422;2024-01-11T05:16:21;103616.59;;;-4.58;80.63
79617;BME280;69097;52.132;5.422;2024-01-11T05:18:50;103607.81;;;-4.60;80.69
79617;BME280;69097;52.132;5.422;2024-01-11T05:21:17;103615.72;;;-4.63;80.88
79617;BME280;69097;52.132;5.422;2024-01-11T05:23:45;103603.44;;;-4.61;80.32
79617;BME280;69097;52.132;5.422;2024-01-11T05:26:15;103599.06;;;-4.62;80.87
79617;BME280;69097;52.132;5.422;2024-01-11T05:28:41;103598.22;;;-4.62;80.63
79617;BME280;69097;52.132;5.422;2024-01-11T05:31:15;103589.97;;;-4.67;80.52
79617;BME280;69097;52.132;5.422;2024-01-11T05:33:43;103584.22;;;-4.71;80.75
79617;BME280;69097;52.132;5.422;2024-01-11T05:36:10;103573.53;;;-4.72;81.07
79617;BME280;69097;52.132;5.422;2024-01-11T05:38:39;103571.84;;;-4.73;81.36
79617;BME280;69097;52.132;5.422;2024-01-11T05:41:06;103577.88;;;-4.76;80.89
79617;BME280;69097;52.132;5.422;2024-01-11T05:43:32;103593.47;;;-4.77;80.92
79617;BME280;69097;52.132;5.422;2024-01-11T05:45:59;103605.50;;;-4.78;80.88
79617;BME280;69097;52.132;5.422;2024-01-11T05:48:25;103592.63;;;-4.82;80.79
79617;BME280;69097;52.132;5.422;2024-01-11T05:50:52;103579.47;;;-4.85;81.12
79617;BME280;69097;52.132;5.422;2024-01-11T05:53:19;103588.19;;;-4.88;81.39
79617;BME280;69097;52.132;5.422;2024-01-11T05:55:47;103601.06;;;-4.89;81.33
79617;BME280;69097;52.132;5.422;2024-01-11T05:58:15;103612.50;;;-4.92;81.39
79617;BME280;69097;52.132;5.422;2024-01-11T06:00:42;103611.44;;;-4.91;81.40
79617;BME280;69097;52.132;5.422;2024-01-11T06:03:18;103609.47;;;-4.95;81.29
79617;BME280;69097;52.132;5.422;2024-01-11T06:05:45;103613.81;;;-4.99;81.41
79617;BME280;69097;52.132;5.422;2024-01-11T06:08:12;103620.63;;;-5.02;81.66
79617;BME280;69097;52.132;5.422;2024-01-11T06:10:41;103621.72;;;-5.03;81.87
79617;BME280;69097;52.132;5.422;2024-01-11T06:13:08;103626.38;;;-5.04;81.41
79617;BME280;69097;52.132;5.422;2024-01-11T06:15:36;103638.41;;;-5.05;81.69
79617;BME280;69097;52.132;5.422;2024-01-11T06:18:03;103633.75;;;-5.04;81.56
79617;BME280;69097;52.132;5.422;2024-01-11T06:20:31;103659.75;;;-5.02;81.73
79617;BME280;69097;52.132;5.422;2024-01-11T06:22:58;103669.59;;;-5.01;82.09
79617;BME280;69097;52.132;5.422;2024-01-11T06:25:25;103688.28;;;-4.97;81.95
79617;BME280;69097;52.132;5.422;2024-01-11T06:27:52;103678.66;;;-5.00;82.30
79617;BME280;69097;52.132;5.422;2024-01-11T06:30:18;103678.97;;;-4.96;81.78
79617;BME280;69097;52.132;5.422;2024-01-11T06:32:45;103677.63;;;-4.94;81.82
79617;BME280;69097;52.132;5.422;2024-01-11T06:35:11;103676.81;;;-4.94;82.22
79617;BME280;69097;52.132;5.422;2024-01-11T06:37:38;103695.69;;;-4.93;82.01
79617;BME280;69097;52.132;5.422;2024-01-11T06:40:05;103695.16;;;-4.90;81.65
79617;BME280;69097;52.132;5.422;2024-01-11T06:42:34;103699.53;;;-4.94;81.96
79617;BME280;69097;52.132;5.422;2024-01-11T06:45:01;103696.78;;;-4.94;81.85
79617;BME280;69097;52.132;5.422;2024-01-11T06:47:27;103691.53;;;-4.95;82.17
79617;BME280;69097;52.132;5.422;2024-01-11T06:49:54;103689.91;;;-4.96;81.89
79617;BME280;69097;52.132;5.422;2024-01-11T06:52:21;103695.38;;;-4.96;81.86
79617;BME280;69097;52.132;5.422;2024-01-11T06:54:47;103691.53;;;-4.95;82.02
79617;BME280;69097;52.132;5.422;2024-01-11T06:57:14;103693.78;;;-4.92;81.61
79617;BME280;69097;52.132;5.422;2024-01-11T06:59:41;103699.84;;;-4.90;81.78
79617;BME280;69097;52.132;5.422;2024-01-11T07:02:07;103708.91;;;-4.85;81.79
79617;BME280;69097;52.132;5.422;2024-01-11T07:04:34;103708.31;;;-4.87;81.89
79617;BME280;69097;52.132;5.422;2024-01-11T07:07:01;103704.78;;;-4.87;81.87
79617;BME280;69097;52.132;5.422;2024-01-11T07:09:28;103700.69;;;-4.85;81.85
79617;BME280;69097;52.132;5.422;2024-01-11T07:11:55;103699.34;;;-4.82;82.30
79617;BME280;69097;52.132;5.422;2024-01-11T07:14:22;103696.63;;;-4.82;81.99
79617;BME280;69097;52.132;5.422;2024-01-11T07:16:48;103694.16;;;-4.84;81.70
79617;BME280;69097;52.132;5.422;2024-01-11T07:19:16;103684.00;;;-4.83;81.70
79617;BME280;69097;52.132;5.422;2024-01-11T07:21:42;103679.38;;;-4.83;82.20
79617;BME280;69097;52.132;5.422;2024-01-11T07:24:09;103673.06;;;-4.83;81.93
79617;BME280;69097;52.132;5.422;2024-01-11T07:26:36;103681.25;;;-4.83;81.61
79617;BME280;69097;52.132;5.422;2024-01-11T07:29:02;103672.50;;;-4.85;81.95
79617;BME280;69097;52.132;5.422;2024-01-11T07:31:29;103656.59;;;-4.88;81.93
79617;BME280;69097;52.132;5.422;2024-01-11T07:33:56;103652.22;;;-4.89;82.25
79617;BME280;69097;52.132;5.422;2024-01-11T07:36:22;103663.16;;;-4.89;81.72
79617;BME280;69097;52.132;5.422;2024-01-11T07:38:49;103659.03;;;-4.92;82.14
79617;BME280;69097;52.132;5.422;2024-01-11T07:41:15;103674.63;;;-4.92;82.06
79617;BME280;69097;52.132;5.422;2024-01-11T07:43:42;103681.75;;;-4.91;82.27
79617;BME280;69097;52.132;5.422;2024-01-11T07:46:20;103679.88;;;-4.86;81.94
79617;BME280;69097;52.132;5.422;2024-01-11T07:49:16;103679.38;;;-4.83;82.09
79617;BME280;69097;52.132;5.422;2024-01-11T07:51:58;103672.78;;;-4.82;82.55
79617;BME280;69097;52.132;5.422;2024-01-11T07:54:25;103676.41;;;-4.76;82.19
79617;BME280;69097;52.132;5.422;2024-01-11T07:56:52;103673.13;;;-4.73;82.39
79617;BME280;69097;52.132;5.422;2024-01-11T07:59:20;103674.81;;;-4.72;82.47
79617;BME280;69097;52.132;5.422;2024-01-11T08:01:47;103677.81;;;-4.74;82.32
79617;BME280;69097;52.132;5.422;2024-01-11T08:04:14;103686.56;;;-4.72;82.11
79617;BME280;69097;52.132;5.422;2024-01-11T08:06:41;103679.19;;;-4.71;82.56
79617;BME280;69097;52.132;5.422;2024-01-11T08:09:08;103673.72;;;-4.71;82.34
79617;BME280;69097;52.132;5.422;2024-01-11T08:11:36;103674.53;;;-4.71;82.36
79617;BME280;69097;52.132;5.422;2024-01-11T08:14:08;103673.44;;;-4.70;82.37
79617;BME280;69097;52.132;5.422;2024-01-11T08:16:34;103673.19;;;-4.68;82.67
79617;BME280;69097;52.132;5.422;2024-01-11T08:19:01;103668.53;;;-4.68;82.49
79617;BME280;69097;52.132;5.422;2024-01-11T08:21:28;103671.59;;;-4.64;82.72
79617;BME280;69097;52.132;5.422;2024-01-11T08:23:55;103677.63;;;-4.62;82.77
79617;BME280;69097;52.132;5.422;2024-01-11T08:26:28;103661.81;;;-4.55;82.47
79617;BME280;69097;52.132;5.422;2024-01-11T08:28:54;103677.19;;;-4.49;82.61
79617;BME280;69097;52.132;5.422;2024-01-11T08:31:21;103685.13;;;-4.48;82.62
79617;BME280;69097;52.132;5.422;2024-01-11T08:33:47;103699.13;;;-4.44;82.56
79617;BME280;69097;52.132;5.422;2024-01-11T08:36:14;103683.53;;;-4.44;82.98
79617;BME280;69097;52.132;5.422;2024-01-11T08:38:41;103699.41;;;-4.41;83.08
79617;BME280;69097;52.132;5.422;2024-01-11T08:41:07;103694.28;;;-4.32;83.02
79617;BME280;69097;52.132;5.422;2024-01-11T08:43:34;103709.69;;;-4.21;82.58
79617;BME280;69097;52.132;5.422;2024-01-11T08:46:00;103709.22;;;-4.13;82.81
79617;BME280;69097;52.132;5.422;2024-01-11T08:48:28;103716.38;;;-4.07;82.55
79617;BME280;69097;52.132;5.422;2024-01-11T08:50:55;103728.22;;;-3.97;82.60
79617;BME280;69097;52.132;5.422;2024-01-11T08:53:22;103729.34;;;-3.88;82.42
79617;BME280;69097;52.132;5.422;2024-01-11T08:55:49;103724.97;;;-3.89;82.48
79617;BME280;69097;52.132;5.422;2024-01-11T08:58:15;103727.44;;;-3.87;81.94
79617;BME280;69097;52.132;5.422;2024-01-11T09:00:42;103743.66;;;-3.81;82.04
79617;BME280;69097;52.132;5.422;2024-01-11T09:03:10;103750.00;;;-3.75;81.88
79617;BME280;69097;52.132;5.422;2024-01-11T09:05:39;103748.09;;;-3.74;81.86
79617;BME280;69097;52.132;5.422;2024-01-11T09:08:06;103751.63;;;-3.74;82.22
79617;BME280;69097;52.132;5.422;2024-01-11T09:10:33;103755.50;;;-3.70;82.20
79617;BME280;69097;52.132;5.422;2024-01-11T09:13:00;103750.88;;;-3.64;81.67
79617;BME280;69097;52.132;5.422;2024-01-11T09:15:26;103762.13;;;-3.66;81.99
79617;BME280;69097;52.132;5.422;2024-01-11T09:17:53;103758.28;;;-3.65;81.96
79617;BME280;69097;52.132;5.422;2024-01-11T09:20:19;103756.41;;;-3.59;81.83
79617;BME280;69097;52.132;5.422;2024-01-11T09:22:46;103758.38;;;-3.45;82.15
79617;BME280;69097;52.132;5.422;2024-01-11T09:25:12;103758.97;;;-3.33;82.17
79617;BME280;69097;52.132;5.422;2024-01-11T09:27:39;103759.03;;;-3.23;81.78
79617;BME280;69097;52.132;5.422;2024-01-11T09:30:06;103748.06;;;-3.18;82.09
79617;BME280;69097;52.132;5.422;2024-01-11T09:32:33;103762.91;;;-3.14;83.06
79617;BME280;69097;52.132;5.422;2024-01-11T09:34:59;103758.25;;;-3.08;82.81
79617;BME280;69097;52.132;5.422;2024-01-11T09:37:26;103749.78;;;-3.02;84.27
79617;BME280;69097;52.132;5.422;2024-01-11T09:39:53;103759.94;;;-2.97;83.98
79617;BME280;69097;52.132;5.422;2024-01-11T09:42:19;103764.59;;;-2.93;84.60
79617;BME280;69097;52.132;5.422;2024-01-11T09:44:46;103760.78;;;-2.87;85.34
79617;BME280;69097;52.132;5.422;2024-01-11T09:47:15;103761.88;;;-2.83;85.82
79617;BME280;69097;52.132;5.422;2024-01-11T09:49:44;103766.81;;;-2.75;85.21
79617;BME280;69097;52.132;5.422;2024-01-11T09:52:12;103783.06;;;-2.68;86.32
79617;BME280;69097;52.132;5.422;2024-01-11T09:54:40;103774.28;;;-2.65;85.91
79617;BME280;69097;52.132;5.422;2024-01-11T09:57:09;103770.16;;;-2.63;86.02
79617;BME280;69097;52.132;5.422;2024-01-11T09:59:36;103772.34;;;-2.60;87.21
79617;BME280;69097;52.132;5.422;2024-01-11T10:02:03;103765.22;;;-2.56;86.59
79617;BME280;69097;52.132;5.422;2024-01-11T10:04:30;103772.91;;;-2.53;87.42
79617;BME280;69097;52.132;5.422;2024-01-11T10:06:57;103784.75;;;-2.47;87.07
79617;BME280;69097;52.132;5.422;2024-01-11T10:09:24;103779.25;;;-2.42;87.35
79617;BME280;69097;52.132;5.422;2024-01-11T10:11:51;103780.88;;;-2.41;87.59
79617;BME280;69097;52.132;5.422;2024-01-11T10:14:20;103779.53;;;-2.38;88.24
79617;BME280;69097;52.132;5.422;2024-01-11T10:16:47;103785.28;;;-2.35;88.29
79617;BME280;69097;52.132;5.422;2024-01-11T10:19:14;103788.31;;;-2.31;87.96
79617;BME280;69097;52.132;5.422;2024-01-11T10:21:43;103785.56;;;-2.26;88.82
79617;BME280;69097;52.132;5.422;2024-01-11T10:24:09;103783.91;;;-2.22;88.89
79617;BME280;69097;52.132;5.422;2024-01-11T10:26:36;103783.09;;;-2.18;88.83
79617;BME280;69097;52.132;5.422;2024-01-11T10:29:03;103770.16;;;-2.17;89.24
79617;BME280;69097;52.132;5.422;2024-01-11T10:31:31;103768.25;;;-2.12;88.77
79617;BME280;69097;52.132;5.422;2024-01-11T10:34:00;103781.72;;;-2.10;89.21
79617;BME280;69097;52.132;5.422;2024-01-11T10:36:30;103778.97;;;-2.05;89.91
79617;BME280;69097;52.132;5.422;2024-01-11T10:38:57;103784.44;;;-2.00;90.05
79617;BME280;69097;52.132;5.422;2024-01-11T10:41:26;103782.25;;;-1.98;89.38
79617;BME280;69097;52.132;5.422;2024-01-11T10:43:57;103774.28;;;-1.95;89.85
79617;BME280;69097;52.132;5.422;2024-01-11T10:46:25;103774.00;;;-1.88;89.87
79617;BME280;69097;52.132;5.422;2024-01-11T10:48:55;103783.91;;;-1.82;90.19
79617;BME280;69097;52.132;5.422;2024-01-11T10:51:23;103778.66;;;-1.79;89.99
79617;BME280;69097;52.132;5.422;2024-01-11T10:53:53;103781.66;;;-1.75;89.92
79617;BME280;69097;52.132;5.422;2024-01-11T10:56:20;103788.28;;;-1.71;90.19
79617;BME280;69097;52.132;5.422;2024-01-11T10:58:47;103792.94;;;-1.67;90.23
79617;BME280;69097;52.132;5.422;2024-01-11T11:01:16;103789.34;;;-1.62;90.01
79617;BME280;69097;52.132;5.422;2024-01-11T11:03:43;103791.53;;;-1.59;90.07
79617;BME280;69097;52.132;5.422;2024-01-11T11:06:11;103795.94;;;-1.58;90.19
79617;BME280;69097;52.132;5.422;2024-01-11T11:08:40;103793.44;;;-1.55;90.65
79617;BME280;69097;52.132;5.422;2024-01-11T11:11:08;103792.38;;;-1.54;91.04
79617;BME280;69097;52.132;5.422;2024-01-11T11:13:35;103803.34;;;-1.49;90.77
79617;BME280;69097;52.132;5.422;2024-01-11T11:16:02;103806.09;;;-1.49;91.10
79617;BME280;69097;52.132;5.422;2024-01-11T11:18:31;103804.72;;;-1.46;90.94
79617;BME280;69097;52.132;5.422;2024-01-11T11:20:58;103801.09;;;-1.42;91.34
79617;BME280;69097;52.132;5.422;2024-01-11T11:23:24;103801.38;;;-1.38;90.90
79617;BME280;69097;52.132;5.422;2024-01-11T11:25:54;103800.28;;;-1.37;91.87
79617;BME280;69097;52.132;5.422;2024-01-11T11:28:22;103793.94;;;-1.33;91.35
79617;BME280;69097;52.132;5.422;2024-01-11T11:30:52;103791.44;;;-1.29;91.53
79617;BME280;69097;52.132;5.422;2024-01-11T11:33:22;103786.75;;;-1.23;91.40
79617;BME280;69097;52.132;5.422;2024-01-11T11:35:54;103785.34;;;-1.21;91.30
79617;BME280;69097;52.132;5.422;2024-01-11T11:38:22;103786.44;;;-1.17;91.19
79617;BME280;69097;52.132;5.422;2024-01-11T11:40:51;103772.41;;;-1.15;92.13
79617;BME280;69097;52.132;5.422;2024-01-11T11:43:20;103771.03;;;-1.13;91.52
79617;BME280;69097;52.132;5.422;2024-01-11T11:45:48;103772.09;;;-1.09;92.04
79617;BME280;69097;52.132;5.422;2024-01-11T11:51:05;103759.13;;;-1.03;91.38
79617;BME280;69097;52.132;5.422;2024-01-11T11:53:36;103756.06;;;-0.97;91.33
79617;BME280;69097;52.132;5.422;2024-01-11T11:56:03;103757.41;;;-0.94;92.17
79617;BME280;69097;52.132;5.422;2024-01-11T11:58:31;103748.31;;;-0.90;92.18
79617;BME280;69097;52.132;5.422;2024-01-11T12:00:58;103742.22;;;-0.87;91.69
79617;BME280;69097;52.132;5.422;2024-01-11T12:03:38;103737.78;;;-0.83;91.78
79617;BME280;69097;52.132;5.422;2024-01-11T12:06:06;103727.84;;;-0.79;91.66
79617;BME280;69097;52.132;5.422;2024-01-11T12:08:35;103720.66;;;-0.75;91.41
79617;BME280;69097;52.132;5.422;2024-01-11T12:11:03;103717.31;;;-0.72;91.78
79617;BME280;69097;52.132;5.422;2024-01-11T12:13:30;103709.00;;;-0.67;91.80
79617;BME280;69097;52.132;5.422;2024-01-11T12:16:00;103695.19;;;-0.62;91.30
79617;BME280;69097;52.132;5.422;2024-01-11T12:18:26;103689.63;;;-0.57;91.69
79617;BME280;69097;52.132;5.422;2024-01-11T12:20:53;103697.03;;;-0.52;91.62
79617;BME280;69097;52.132;5.422;2024-01-11T12:23:20;103692.88;;;-0.50;91.50
79617;BME280;69097;52.132;5.422;2024-01-11T12:25:47;103688.47;;;-0.46;92.02
79617;BME280;69097;52.132;5.422;2024-01-11T12:28:14;103695.00;;;-0.42;91.65
79617;BME280;69097;52.132;5.422;2024-01-11T12:30:40;103694.44;;;-0.39;91.70
79617;BME280;69097;52.132;5.422;2024-01-11T12:33:07;103690.00;;;-0.35;91.25
79617;BME280;69097;52.132;5.422;2024-01-11T12:35:35;103698.81;;;-0.33;91.61
79617;BME280;69097;52.132;5.422;2024-01-11T12:38:04;103702.09;;;-0.31;91.08
79617;BME280;69097;52.132;5.422;2024-01-11T12:40:34;103695.16;;;-0.28;91.70
79617;BME280;69097;52.132;5.422;2024-01-11T12:43:04;103689.06;;;-0.25;91.55
79617;BME280;69097;52.132;5.422;2024-01-11T12:45:31;103680.25;;;-0.22;91.57
79617;BME280;69097;52.132;5.422;2024-01-11T12:50:58;103672.72;;;-0.17;91.12
79617;BME280;69097;52.132;5.422;2024-01-11T12:53:45;103666.63;;;-0.14;91.17
79617;BME280;69097;52.132;5.422;2024-01-11T12:56:14;103664.38;;;-0.12;91.00
79617;BME280;69097;52.132;5.422;2024-01-11T12:58:42;103666.59;;;-0.09;91.22